sensor_id;sensor_type;location;lat;lon;timestamp;pressure;altitude;pressure_sealevel;temperature;humidity
38227;BME280;24026;49.446;8.576;2023-02-18T00:00:23;101411.06;;;14.51;60.08
38227;BME280;24026;49.446;8.576;2023-02-18T00:02:45;101413.50;;;14.52;59.97
38227;BME280;24026;49.446;8.576;2023-02-18T00:05:05;101400.69;;;14.54;60.00
38227;BME280;24026;49.446;8.576;2023-02-18T00:07:26;101399.63;;;14.55;59.72
38227;BME280;24026;49.446;8.576;2023-02-18T00:09:46;101395.00;;;14.51;59.96
38227;BME280;24026;49.446;8.576;2023-02-18T00:12:06;101398.97;;;14.48;60.01
38227;BME280;24026;49.446;8.576;2023-02-18T00:14:27;101394.53;;;14.54;59.69
38227;BME280;24026;49.446;8.576;2023-02-18T00:16:47;101397.38;;;14.47;60.41
38227;BME280;24026;49.446;8.576;2023-02-18T00:19:11;101404.66;;;14.52;60.08
38227;BME280;24026;49.446;8.576;2023-02-18T00:21:33;101389.41;;;14.52;59.92
38227;BME280;24026;49.446;8.576;2023-02-18T00:23:54;101398.41;;;14.46;60.19
38227;BME280;24026;49.446;8.576;2023-02-18T00:26:16;101402.47;;;14.49;60.26
38227;BME280;24026;49.446;8.576;2023-02-18T00:28:36;101397.38;;;14.47;60.24
38227;BME280;24026;49.446;8.576;2023-02-18T00:30:57;101399.31;;;14.52;60.16
38227;BME280;24026;49.446;8.576;2023-02-18T00:33:17;101388.03;;;14.50;60.12
38227;BME280;24026;49.446;8.576;2023-02-18T00:35:37;101391.78;;;14.49;59.93
38227;BME280;24026;49.446;8.576;2023-02-18T00:37:58;101388.28;;;14.48;60.21
38227;BME280;24026;49.446;8.576;2023-02-18T00:40:19;101380.75;;;14.45;60.40
38227;BME280;24026;49.446;8.576;2023-02-18T00:42:40;101384.31;;;14.51;60.09
38227;BME280;24026;49.446;8.576;2023-02-18T00:45:00;101394.69;;;14.47;60.18
38227;BME280;24026;49.446;8.576;2023-02-18T00:47:20;101388.84;;;14.50;60.02
38227;BME280;24026;49.446;8.576;2023-02-18T00:49:41;101389.66;;;14.51;60.14
38227;BME280;24026;49.446;8.576;2023-02-18T00:52:02;101397.94;;;14.49;60.08
38227;BME280;24026;49.446;8.576;2023-02-18T00:54:22;101396.38;;;14.53;60.18
38227;BME280;24026;49.446;8.576;2023-02-18T00:56:43;101384.31;;;14.51;60.09
38227;BME280;24026;49.446;8.576;2023-02-18T00:59:03;101393.06;;;14.46;60.14
38227;BME280;24026;49.446;8.576;2023-02-18T01:01:24;101385.03;;;14.46;60.22
38227;BME280;24026;49.446;8.576;2023-02-18T01:03:44;101380.84;;;14.50;60.12
38227;BME280;24026;49.446;8.576;2023-02-18T01:06:06;101385.94;;;14.52;59.92
38227;BME280;24026;49.446;8.576;2023-02-18T01:08:26;101383.75;;;14.49;60.36
38227;BME280;24026;49.446;8.576;2023-02-18T01:10:48;101383.75;;;14.49;60.29
38227;BME280;24026;49.446;8.576;2023-02-18T01:13:09;101389.09;;;14.49;60.09
38227;BME280;24026;49.446;8.576;2023-02-18T01:15:31;101386.25;;;14.38;60.50
38227;BME280;24026;49.446;8.576;2023-02-18T01:17:51;101381.56;;;14.45;60.30
38227;BME280;24026;49.446;8.576;2023-02-18T01:20:13;101382.13;;;14.48;60.34
38227;BME280;24026;49.446;8.576;2023-02-18T01:22:34;101380.75;;;14.45;60.12
38227;BME280;24026;49.446;8.576;2023-02-18T01:24:54;101380.75;;;14.45;60.08
38227;BME280;24026;49.446;8.576;2023-02-18T01:27:14;101395.50;;;14.48;60.19
38227;BME280;24026;49.446;8.576;2023-02-18T01:29:35;101388.84;;;14.50;59.98
38227;BME280;24026;49.446;8.576;2023-02-18T01:31:55;101386.75;;;14.52;60.10
38227;BME280;24026;49.446;8.576;2023-02-18T01:34:16;101395.25;;;14.49;60.11
38227;BME280;24026;49.446;8.576;2023-02-18T01:36:36;101378.72;;;14.52;60.01
38227;BME280;24026;49.446;8.576;2023-02-18T01:38:56;101376.84;;;14.53;60.05
38227;BME280;24026;49.446;8.576;2023-02-18T01:41:17;101376.03;;;14.52;60.10
38227;BME280;24026;49.446;8.576;2023-02-18T01:43:37;101372.72;;;14.45;60.21
38227;BME280;24026;49.446;8.576;2023-02-18T01:48:56;101381.00;;;14.43;60.25
38227;BME280;24026;49.446;8.576;2023-02-18T01:51:25;101380.16;;;14.43;60.01
38227;BME280;24026;49.446;8.576;2023-02-18T01:56:25;101374.81;;;14.43;60.28
38227;BME280;24026;49.446;8.576;2023-02-18T01:58:47;101373.84;;;14.49;59.97
38227;BME280;24026;49.446;8.576;2023-02-18T02:01:09;101375.97;;;14.47;60.25
38227;BME280;24026;49.446;8.576;2023-02-18T02:03:30;101373.28;;;14.47;60.30
38227;BME280;24026;49.446;8.576;2023-02-18T02:05:50;101366.06;;;14.48;60.18
38227;BME280;24026;49.446;8.576;2023-02-18T02:08:10;101373.84;;;14.49;60.04
38227;BME280;24026;49.446;8.576;2023-02-18T02:10:48;101369.31;;;14.50;59.97
38227;BME280;24026;49.446;8.576;2023-02-18T02:13:41;101367.03;;;14.41;60.30
38227;BME280;24026;49.446;8.576;2023-02-18T02:16:17;101357.66;;;14.39;60.53
38227;BME280;24026;49.446;8.576;2023-02-18T02:19:16;101347.44;;;14.36;60.49
38227;BME280;24026;49.446;8.576;2023-02-18T02:27:02;101342.09;;;14.36;60.59
38227;BME280;24026;49.446;8.576;2023-02-18T02:35:16;101334.53;;;14.33;60.79
38227;BME280;24026;49.446;8.576;2023-02-18T02:37:48;101326.53;;;14.33;60.71
38227;BME280;24026;49.446;8.576;2023-02-18T02:48:24;101321.25;;;14.38;60.44
38227;BME280;24026;49.446;8.576;2023-02-18T02:53:29;101320.44;;;14.37;60.64
38227;BME280;24026;49.446;8.576;2023-02-18T02:55:49;101322.09;;;14.38;60.63
38227;BME280;24026;49.446;8.576;2023-02-18T02:58:14;101315.34;;;14.36;60.71
38227;BME280;24026;49.446;8.576;2023-02-18T03:05:38;101313.38;;;14.31;60.81
38227;BME280;24026;49.446;8.576;2023-02-18T03:20:59;101307.63;;;14.39;60.58
38227;BME280;24026;49.446;8.576;2023-02-18T03:23:34;101311.03;;;14.35;60.78
38227;BME280;24026;49.446;8.576;2023-02-18T03:25:58;101307.56;;;14.34;60.85
38227;BME280;24026;49.446;8.576;2023-02-18T03:28:22;101312.09;;;14.34;60.76
38227;BME280;24026;49.446;8.576;2023-02-18T03:30:52;101306.19;;;14.32;60.86
38227;BME280;24026;49.446;8.576;2023-02-18T03:33:37;101302.44;;;14.33;60.72
38227;BME280;24026;49.446;8.576;2023-02-18T03:35:58;101302.28;;;14.39;60.59
38227;BME280;24026;49.446;8.576;2023-02-18T03:38:23;101312.19;;;14.39;60.62
38227;BME280;24026;49.446;8.576;2023-02-18T03:40:45;101300.69;;;14.38;60.61
38227;BME280;24026;49.446;8.576;2023-02-18T03:43:06;101312.34;;;14.32;60.79
38227;BME280;24026;49.446;8.576;2023-02-18T03:45:26;101305.19;;;14.38;60.62
38227;BME280;24026;49.446;8.576;2023-02-18T03:47:47;101307.31;;;14.36;60.72
38227;BME280;24026;49.446;8.576;2023-02-18T03:50:08;101305.69;;;14.35;60.78
38227;BME280;24026;49.446;8.576;2023-02-18T03:52:28;101309.34;;;14.29;60.94
38227;BME280;24026;49.446;8.576;2023-02-18T03:54:48;101312.09;;;14.34;60.78
38227;BME280;24026;49.446;8.576;2023-02-18T03:57:09;101319.31;;;14.33;60.68
38227;BME280;24026;49.446;8.576;2023-02-18T03:59:30;101310.22;;;14.34;60.81
38227;BME280;24026;49.446;8.576;2023-02-18T04:01:50;101308.59;;;14.33;60.71
38227;BME280;24026;49.446;8.576;2023-02-18T04:04:11;101308.28;;;14.30;60.84
38227;BME280;24026;49.446;8.576;2023-02-18T04:06:31;101305.94;;;14.33;60.84
38227;BME280;24026;49.446;8.576;2023-02-18T04:08:51;101314.78;;;14.34;60.80
38227;BME280;24026;49.446;8.576;2023-02-18T04:11:12;101316.91;;;14.32;60.75
38227;BME280;24026;49.446;8.576;2023-02-18T04:13:32;101318.19;;;14.29;60.74
38227;BME280;24026;49.446;8.576;2023-02-18T04:15:53;101324.41;;;14.35;60.69
38227;BME280;24026;49.446;8.576;2023-02-18T04:18:13;101316.97;;;14.37;60.56
38227;BME280;24026;49.446;8.576;2023-02-18T04:20:34;101321.00;;;14.39;60.42
38227;BME280;24026;49.446;8.576;2023-02-18T04:22:54;101323.84;;;14.33;60.91
38227;BME280;24026;49.446;8.576;2023-02-18T04:25:15;101324.16;;;14.36;60.59
38227;BME280;24026;49.446;8.576;2023-02-18T04:27:35;101314.06;;;14.38;60.51
38227;BME280;24026;49.446;8.576;2023-02-18T04:29:55;101316.91;;;14.32;60.66
38227;BME280;24026;49.446;8.576;2023-02-18T04:32:16;101314.13;;;14.26;60.76
38227;BME280;24026;49.446;8.576;2023-02-18T04:34:36;101312.91;;;14.34;60.61
38227;BME280;24026;49.446;8.576;2023-02-18T04:36:57;101318.19;;;14.29;60.73
38227;BME280;24026;49.446;8.576;2023-02-18T04:39:17;101310.22;;;14.34;60.31
38227;BME280;24026;49.446;8.576;2023-02-18T04:41:38;101307.25;;;14.31;60.59
38227;BME280;24026;49.446;8.576;2023-02-18T04:43:59;101314.94;;;14.27;60.84
38227;BME280;24026;49.446;8.576;2023-02-18T04:46:19;101308.88;;;14.32;60.62
38227;BME280;24026;49.446;8.576;2023-02-18T04:48:40;101307.16;;;14.25;60.65
38227;BME280;24026;49.446;8.576;2023-02-18T04:51:01;101300.03;;;14.31;60.45
38227;BME280;24026;49.446;8.576;2023-02-18T04:53:22;101308.28;;;14.30;60.48
38227;BME280;24026;49.446;8.576;2023-02-18T04:55:42;101308.38;;;14.35;60.34
38227;BME280;24026;49.446;8.576;2023-02-18T04:58:03;101308.59;;;14.33;60.39
38227;BME280;24026;49.446;8.576;2023-02-18T05:00:23;101305.38;;;14.31;60.53
38227;BME280;24026;49.446;8.576;2023-02-18T05:02:44;101307.00;;;14.32;60.52
38227;BME280;24026;49.446;8.576;2023-02-18T05:05:05;101301.97;;;14.36;60.21
38227;BME280;24026;49.446;8.576;2023-02-18T05:07:25;101308.53;;;14.28;60.48
38227;BME280;24026;49.446;8.576;2023-02-18T05:09:46;101300.25;;;14.30;60.30
38227;BME280;24026;49.446;8.576;2023-02-18T05:12:06;101306.19;;;14.32;60.35
38227;BME280;24026;49.446;8.576;2023-02-18T05:14:26;101306.75;;;14.34;60.32
38227;BME280;24026;49.446;8.576;2023-02-18T05:16:47;101313.16;;;14.33;60.44
38227;BME280;24026;49.446;8.576;2023-02-18T05:19:08;101316.38;;;14.35;60.07
38227;BME280;24026;49.446;8.576;2023-02-18T05:21:29;101308.88;;;14.32;60.20
38227;BME280;24026;49.446;8.576;2023-02-18T05:23:49;101305.06;;;14.27;60.35
38227;BME280;24026;49.446;8.576;2023-02-18T05:26:10;101302.94;;;14.30;60.29
38227;BME280;24026;49.446;8.576;2023-02-18T05:28:30;101301.41;;;14.34;60.15
38227;BME280;24026;49.446;8.576;2023-02-18T05:30:50;101300.34;;;14.35;60.04
38227;BME280;24026;49.446;8.576;2023-02-18T05:33:11;101300.59;;;14.33;60.18
38227;BME280;24026;49.446;8.576;2023-02-18T05:35:31;101301.34;;;14.29;60.13
38227;BME280;24026;49.446;8.576;2023-02-18T05:37:52;101294.03;;;14.24;60.31
38227;BME280;24026;49.446;8.576;2023-02-18T05:40:12;101299.16;;;14.25;60.16
38227;BME280;24026;49.446;8.576;2023-02-18T05:42:33;101306.84;;;14.22;60.31
38227;BME280;24026;49.446;8.576;2023-02-18T05:44:53;101292.41;;;14.23;60.25
38227;BME280;24026;49.446;8.576;2023-02-18T05:47:14;101290.06;;;14.26;60.15
38227;BME280;24026;49.446;8.576;2023-02-18T05:49:35;101295.66;;;14.25;60.08
38227;BME280;24026;49.446;8.576;2023-02-18T05:51:55;101295.31;;;14.21;60.22
38227;BME280;24026;49.446;8.576;2023-02-18T05:54:16;101299.94;;;14.26;60.09
38227;BME280;24026;49.446;8.576;2023-02-18T05:56:36;101298.81;;;14.22;60.21
38227;BME280;24026;49.446;8.576;2023-02-18T05:58:57;101286.56;;;14.26;60.06
38227;BME280;24026;49.446;8.576;2023-02-18T06:01:17;101290.81;;;14.22;60.07
38227;BME280;24026;49.446;8.576;2023-02-18T06:03:37;101288.44;;;14.25;59.96
38227;BME280;24026;49.446;8.576;2023-02-18T06:05:58;101291.94;;;14.26;59.98
38227;BME280;24026;49.446;8.576;2023-02-18T06:08:18;101278.25;;;14.22;60.24
38227;BME280;24026;49.446;8.576;2023-02-18T06:10:42;101283.03;;;14.20;60.12
38227;BME280;24026;49.446;8.576;2023-02-18T06:13:02;101284.63;;;14.21;60.04
38227;BME280;24026;49.446;8.576;2023-02-18T06:15:23;101274.53;;;14.23;60.01
38227;BME280;24026;49.446;8.576;2023-02-18T06:17:43;101275.56;;;14.22;59.95
38227;BME280;24026;49.446;8.576;2023-02-18T06:20:04;101271.59;;;14.25;59.77
38227;BME280;24026;49.446;8.576;2023-02-18T06:22:25;101271.84;;;14.23;59.73
38227;BME280;24026;49.446;8.576;2023-02-18T06:24:45;101276.28;;;14.18;59.93
38227;BME280;24026;49.446;8.576;2023-02-18T06:27:06;101280.34;;;14.20;59.87
38227;BME280;24026;49.446;8.576;2023-02-18T06:29:26;101274.00;;;14.26;59.79
38227;BME280;24026;49.446;8.576;2023-02-18T06:31:49;101268.34;;;14.23;59.79
38227;BME280;24026;49.446;8.576;2023-02-18T06:34:09;101276.38;;;14.23;59.85
38227;BME280;24026;49.446;8.576;2023-02-18T06:36:30;101274.44;;;14.18;59.96
38227;BME280;24026;49.446;8.576;2023-02-18T06:38:50;101255.47;;;14.20;59.79
38227;BME280;24026;49.446;8.576;2023-02-18T06:41:12;101253.88;;;14.19;60.11
38227;BME280;24026;49.446;8.576;2023-02-18T06:43:33;101253.13;;;14.23;59.78
38227;BME280;24026;49.446;8.576;2023-02-18T06:45:53;101251.75;;;14.21;59.76
38227;BME280;24026;49.446;8.576;2023-02-18T06:48:14;101250.94;;;14.20;59.93
38227;BME280;24026;49.446;8.576;2023-02-18T06:50:36;101255.06;;;14.11;60.20
38227;BME280;24026;49.446;8.576;2023-02-18T06:52:56;101240.91;;;14.11;60.11
38227;BME280;24026;49.446;8.576;2023-02-18T06:55:17;101239.09;;;14.16;59.75
38227;BME280;24026;49.446;8.576;2023-02-18T06:57:37;101235.47;;;14.22;59.77
38227;BME280;24026;49.446;8.576;2023-02-18T06:59:57;101233.34;;;14.24;59.65
38227;BME280;24026;49.446;8.576;2023-02-18T07:02:18;101245.59;;;14.20;60.10
38227;BME280;24026;49.446;8.576;2023-02-18T07:04:38;101240.72;;;14.17;59.98
38227;BME280;24026;49.446;8.576;2023-02-18T07:06:58;101235.16;;;14.19;59.84
38227;BME280;24026;49.446;8.576;2023-02-18T07:09:19;101233.75;;;14.16;59.97
38227;BME280;24026;49.446;8.576;2023-02-18T07:11:39;101238.63;;;14.19;59.64
38227;BME280;24026;49.446;8.576;2023-02-18T07:14:00;101246.41;;;14.21;59.90
38227;BME280;24026;49.446;8.576;2023-02-18T07:16:20;101248.84;;;14.22;59.64
38227;BME280;24026;49.446;8.576;2023-02-18T07:18:40;101235.47;;;14.22;59.79
38227;BME280;24026;49.446;8.576;2023-02-18T07:21:02;101242.38;;;14.18;59.88
38227;BME280;24026;49.446;8.576;2023-02-18T07:23:23;101236.19;;;14.18;59.64
38227;BME280;24026;49.446;8.576;2023-02-18T07:25:43;101229.00;;;14.18;59.83
38227;BME280;24026;49.446;8.576;2023-02-18T07:28:04;101230.34;;;14.21;59.67
38227;BME280;24026;49.446;8.576;2023-02-18T07:30:24;101233.44;;;14.13;60.03
38227;BME280;24026;49.446;8.576;2023-02-18T07:32:45;101216.38;;;14.14;59.87
38227;BME280;24026;49.446;8.576;2023-02-18T07:35:06;101211.00;;;14.14;59.98
38227;BME280;24026;49.446;8.576;2023-02-18T07:37:26;101222.56;;;14.19;59.80
38227;BME280;24026;49.446;8.576;2023-02-18T07:39:46;101214.06;;;14.22;59.62
38227;BME280;24026;49.446;8.576;2023-02-18T07:42:08;101212.19;;;14.23;59.56
38227;BME280;24026;49.446;8.576;2023-02-18T07:44:28;101209.53;;;14.23;59.67
38227;BME280;24026;49.446;8.576;2023-02-18T07:46:49;101207.63;;;14.18;59.91
38227;BME280;24026;49.446;8.576;2023-02-18T07:49:10;101208.97;;;14.21;59.75
38227;BME280;24026;49.446;8.576;2023-02-18T07:51:30;101216.69;;;14.17;59.87
38227;BME280;24026;49.446;8.576;2023-02-18T07:53:50;101217.22;;;14.19;59.88
38227;BME280;24026;49.446;8.576;2023-02-18T07:56:11;101213.44;;;14.15;59.97
38227;BME280;24026;49.446;8.576;2023-02-18T07:58:34;101213.19;;;14.17;59.74
38227;BME280;24026;49.446;8.576;2023-02-18T08:00:55;101214.56;;;14.19;59.85
38227;BME280;24026;49.446;8.576;2023-02-18T08:03:17;101214.88;;;14.23;59.67
38227;BME280;24026;49.446;8.576;2023-02-18T08:05:37;101211.09;;;14.19;59.92
38227;BME280;24026;49.446;8.576;2023-02-18T08:07:58;101214.88;;;14.23;59.45
38227;BME280;24026;49.446;8.576;2023-02-18T08:10:18;101217.78;;;14.21;59.81
38227;BME280;24026;49.446;8.576;2023-02-18T08:12:39;101209.28;;;14.24;59.87
38227;BME280;24026;49.446;8.576;2023-02-18T08:14:59;101211.97;;;14.24;59.67
38227;BME280;24026;49.446;8.576;2023-02-18T08:17:19;101210.13;;;14.25;59.70
38227;BME280;24026;49.446;8.576;2023-02-18T08:19:40;101218.94;;;14.25;59.70
38227;BME280;24026;49.446;8.576;2023-02-18T08:22:01;101202.09;;;14.25;59.91
38227;BME280;24026;49.446;8.576;2023-02-18T08:24:22;101211.16;;;14.24;59.74
38227;BME280;24026;49.446;8.576;2023-02-18T08:26:42;101206.13;;;14.27;59.58
38227;BME280;24026;49.446;8.576;2023-02-18T08:29:03;101203.94;;;14.24;59.79
38227;BME280;24026;49.446;8.576;2023-02-18T08:31:26;101207.09;;;14.21;59.79
38227;BME280;24026;49.446;8.576;2023-02-18T08:33:47;101207.69;;;14.23;59.72
38227;BME280;24026;49.446;8.576;2023-02-18T08:36:07;101209.28;;;14.24;59.60
38227;BME280;24026;49.446;8.576;2023-02-18T08:38:29;101193.25;;;14.24;59.76
38227;BME280;24026;49.446;8.576;2023-02-18T08:40:50;101192.94;;;14.21;59.78
38227;BME280;24026;49.446;8.576;2023-02-18T08:43:11;101183.03;;;14.21;59.77
38227;BME280;24026;49.446;8.576;2023-02-18T08:45:31;101187.09;;;14.24;59.73
38227;BME280;24026;49.446;8.576;2023-02-18T08:47:52;101190.31;;;14.26;59.86
38227;BME280;24026;49.446;8.576;2023-02-18T08:50:12;101193.56;;;14.28;59.68
38227;BME280;24026;49.446;8.576;2023-02-18T08:52:33;101186.91;;;14.31;59.47
38227;BME280;24026;49.446;8.576;2023-02-18T08:54:53;101189.03;;;14.29;59.53
38227;BME280;24026;49.446;8.576;2023-02-18T08:57:13;101176.72;;;14.27;59.60
38227;BME280;24026;49.446;8.576;2023-02-18T08:59:34;101173.97;;;14.22;59.89
38227;BME280;24026;49.446;8.576;2023-02-18T09:01:54;101178.53;;;14.22;59.74
38227;BME280;24026;49.446;8.576;2023-02-18T09:04:15;101175.53;;;14.18;59.93
38227;BME280;24026;49.446;8.576;2023-02-18T09:06:37;101178.59;;;14.27;59.61
38227;BME280;24026;49.446;8.576;2023-02-18T09:08:58;101181.25;;;14.27;59.75
38227;BME280;24026;49.446;8.576;2023-02-18T09:11:19;101186.13;;;14.30;59.53
38227;BME280;24026;49.446;8.576;2023-02-18T09:13:39;101184.00;;;14.32;59.60
38227;BME280;24026;49.446;8.576;2023-02-18T09:16:04;101189.84;;;14.29;59.68
38227;BME280;24026;49.446;8.576;2023-02-18T09:18:25;101192.56;;;14.34;59.43
38227;BME280;24026;49.446;8.576;2023-02-18T09:20:45;101191.78;;;14.34;59.55
38227;BME280;24026;49.446;8.576;2023-02-18T09:23:05;101195.97;;;14.30;59.84
38227;BME280;24026;49.446;8.576;2023-02-18T09:25:26;101196.56;;;14.32;59.45
38227;BME280;24026;49.446;8.576;2023-02-18T09:27:46;101198.66;;;14.30;59.67
38227;BME280;24026;49.446;8.576;2023-02-18T09:30:07;101204.59;;;14.32;59.47
38227;BME280;24026;49.446;8.576;2023-02-18T09:32:27;101202.97;;;14.31;59.64
38227;BME280;24026;49.446;8.576;2023-02-18T09:34:48;101197.63;;;14.31;59.43
38227;BME280;24026;49.446;8.576;2023-02-18T09:37:08;101194.44;;;14.34;59.54
38227;BME280;24026;49.446;8.576;2023-02-18T09:39:29;101199.47;;;14.30;59.50
38227;BME280;24026;49.446;8.576;2023-02-18T09:41:58;101195.25;;;14.34;59.29
38227;BME280;24026;49.446;8.576;2023-02-18T09:44:38;101184.56;;;14.34;59.26
38227;BME280;24026;49.446;8.576;2023-02-18T09:47:16;101188.03;;;14.35;59.23
38227;BME280;24026;49.446;8.576;2023-02-18T09:49:40;101193.19;;;14.41;59.13
38227;BME280;24026;49.446;8.576;2023-02-18T09:52:15;101191.03;;;14.38;59.12
38227;BME280;24026;49.446;8.576;2023-02-18T09:54:36;101186.81;;;14.42;59.06
38227;BME280;24026;49.446;8.576;2023-02-18T09:56:57;101191.03;;;14.38;59.19
38227;BME280;24026;49.446;8.576;2023-02-18T09:59:21;101186.50;;;14.39;59.08
38227;BME280;24026;49.446;8.576;2023-02-18T10:01:44;101193.78;;;14.43;58.97
38227;BME280;24026;49.446;8.576;2023-02-18T10:06:33;101192.88;;;14.38;58.96
38227;BME280;24026;49.446;8.576;2023-02-18T10:08:54;101191.84;;;14.39;59.08
38227;BME280;24026;49.446;8.576;2023-02-18T10:11:23;101195.31;;;14.39;59.04
38227;BME280;24026;49.446;8.576;2023-02-18T10:13:48;101197.50;;;14.42;59.12
38227;BME280;24026;49.446;8.576;2023-02-18T10:16:15;101172.94;;;14.45;58.79
38227;BME280;24026;49.446;8.576;2023-02-18T10:18:41;101182.84;;;14.45;58.75
38227;BME280;24026;49.446;8.576;2023-02-18T10:21:40;101196.13;;;14.40;59.11
38227;BME280;24026;49.446;8.576;2023-02-18T10:26:39;101183.69;;;14.51;58.73
38227;BME280;24026;49.446;8.576;2023-02-18T10:29:00;101185.56;;;14.50;58.83
38227;BME280;24026;49.446;8.576;2023-02-18T10:31:28;101187.66;;;14.48;58.66
38227;BME280;24026;49.446;8.576;2023-02-18T10:34:02;101186.88;;;14.48;58.66
38227;BME280;24026;49.446;8.576;2023-02-18T10:36:31;101188.00;;;14.52;58.68
38227;BME280;24026;49.446;8.576;2023-02-18T10:39:35;101190.22;;;14.38;58.91
38227;BME280;24026;49.446;8.576;2023-02-18T10:42:23;101191.91;;;14.44;58.71
38227;BME280;24026;49.446;8.576;2023-02-18T10:45:06;101195.63;;;14.43;58.79
38227;BME280;24026;49.446;8.576;2023-02-18T10:50:10;101204.53;;;14.49;58.60
38227;BME280;24026;49.446;8.576;2023-02-18T10:52:36;101210.75;;;14.54;58.46
38227;BME280;24026;49.446;8.576;2023-02-18T10:55:08;101199.81;;;14.56;58.26
38227;BME280;24026;49.446;8.576;2023-02-18T10:57:29;101202.13;;;14.47;58.54
38227;BME280;24026;49.446;8.576;2023-02-18T11:02:18;101207.28;;;14.54;58.27
38227;BME280;24026;49.446;8.576;2023-02-18T11:04:39;101209.66;;;14.50;58.46
38227;BME280;24026;49.446;8.576;2023-02-18T11:07:18;101204.13;;;14.57;58.07
38227;BME280;24026;49.446;8.576;2023-02-18T11:12:49;101214.41;;;14.48;58.42
38227;BME280;24026;49.446;8.576;2023-02-18T11:17:34;101215.88;;;14.56;58.15
38227;BME280;24026;49.446;8.576;2023-02-18T11:22:43;101211.31;;;14.56;57.97
38227;BME280;24026;49.446;8.576;2023-02-18T11:25:19;101208.09;;;14.54;58.19
38227;BME280;24026;49.446;8.576;2023-02-18T11:27:45;101200.38;;;14.58;57.97
38227;BME280;24026;49.446;8.576;2023-02-18T11:30:45;101209.91;;;14.49;58.10
38227;BME280;24026;49.446;8.576;2023-02-18T11:33:09;101194.00;;;14.59;58.07
38227;BME280;24026;49.446;8.576;2023-02-18T11:35:35;101201.78;;;14.60;57.94
38227;BME280;24026;49.446;8.576;2023-02-18T11:37:57;101201.94;;;14.54;58.11
38227;BME280;24026;49.446;8.576;2023-02-18T11:40:29;101194.72;;;14.54;58.01
38227;BME280;24026;49.446;8.576;2023-02-18T11:42:51;101199.00;;;14.55;57.99
38227;BME280;24026;49.446;8.576;2023-02-18T11:45:27;101193.91;;;14.54;57.89
38227;BME280;24026;49.446;8.576;2023-02-18T11:47:47;101186.63;;;14.49;58.01
38227;BME280;24026;49.446;8.576;2023-02-18T11:50:21;101186.78;;;14.59;57.82
38227;BME280;24026;49.446;8.576;2023-02-18T11:52:46;101184.66;;;14.61;57.71
38227;BME280;24026;49.446;8.576;2023-02-18T11:55:22;101175.81;;;14.61;57.44
38227;BME280;24026;49.446;8.576;2023-02-18T11:57:50;101173.56;;;14.53;57.77
38227;BME280;24026;49.446;8.576;2023-02-18T12:00:20;101174.44;;;14.58;57.72
38227;BME280;24026;49.446;8.576;2023-02-18T12:02:41;101174.03;;;14.50;57.72
38227;BME280;24026;49.446;8.576;2023-02-18T12:05:08;101168.34;;;14.63;57.44
38227;BME280;24026;49.446;8.576;2023-02-18T12:07:40;101167.00;;;14.60;57.50
38227;BME280;24026;49.446;8.576;2023-02-18T12:10:10;101169.97;;;14.64;57.51
38227;BME280;24026;49.446;8.576;2023-02-18T12:12:40;101164.38;;;14.66;57.19
38227;BME280;24026;49.446;8.576;2023-02-18T12:15:03;101144.19;;;14.58;57.39
38227;BME280;24026;49.446;8.576;2023-02-18T12:22:43;101142.84;;;14.55;57.23
38227;BME280;24026;49.446;8.576;2023-02-18T12:25:39;101131.66;;;14.58;57.22
38227;BME280;24026;49.446;8.576;2023-02-18T12:33:57;101145.34;;;14.62;56.98
38227;BME280;24026;49.446;8.576;2023-02-18T12:36:27;101145.41;;;14.67;56.95
38227;BME280;24026;49.446;8.576;2023-02-18T12:38:57;101144.59;;;14.67;56.82
38227;BME280;24026;49.446;8.576;2023-02-18T12:57:55;101129.06;;;14.63;56.48
38227;BME280;24026;49.446;8.576;2023-02-18T13:03:15;101127.34;;;14.57;56.66
38227;BME280;24026;49.446;8.576;2023-02-18T13:11:38;101117.53;;;14.63;56.20
38227;BME280;24026;49.446;8.576;2023-02-18T13:14:06;101103.34;;;14.62;56.18
38227;BME280;24026;49.446;8.576;2023-02-18T13:16:30;101111.94;;;14.64;56.11
38227;BME280;24026;49.446;8.576;2023-02-18T13:18:58;101101.97;;;14.60;56.11
38227;BME280;24026;49.446;8.576;2023-02-18T13:21:21;101089.53;;;14.71;56.03
38227;BME280;24026;49.446;8.576;2023-02-18T13:23:51;101090.22;;;14.61;56.10
38227;BME280;24026;49.446;8.576;2023-02-18T13:26:13;101092.16;;;14.66;55.82
38227;BME280;24026;49.446;8.576;2023-02-18T13:33:55;101080.50;;;14.55;55.90
38227;BME280;24026;49.446;8.576;2023-02-18T13:39:09;101081.16;;;14.62;55.68
38227;BME280;24026;49.446;8.576;2023-02-18T13:41:39;101074.97;;;14.61;55.66
38227;BME280;24026;49.446;8.576;2023-02-18T13:44:00;101065.41;;;14.66;55.65
38227;BME280;24026;49.446;8.576;2023-02-18T13:46:23;101058.72;;;14.68;55.45
38227;BME280;24026;49.446;8.576;2023-02-18T13:51:07;101068.31;;;14.64;55.55
38227;BME280;24026;49.446;8.576;2023-02-18T13:53:28;101061.50;;;14.56;55.46
38227;BME280;24026;49.446;8.576;2023-02-18T13:56:00;101069.78;;;14.55;55.41
38227;BME280;24026;49.446;8.576;2023-02-18T13:58:35;101062.19;;;14.63;55.05
38227;BME280;24026;49.446;8.576;2023-02-18T14:01:20;101060.28;;;14.64;55.17
38227;BME280;24026;49.446;8.576;2023-02-18T14:08:36;101066.69;;;14.63;55.12
38227;BME280;24026;49.446;8.576;2023-02-18T14:13:54;101072.34;;;14.67;54.73
38227;BME280;24026;49.446;8.576;2023-02-18T14:19:30;101062.72;;;14.66;55.05
38227;BME280;24026;49.446;8.576;2023-02-18T14:27:39;101072.34;;;14.67;54.73
38227;BME280;24026;49.446;8.576;2023-02-18T14:30:07;101069.88;;;14.60;54.76
38227;BME280;24026;49.446;8.576;2023-02-18T14:32:38;101067.69;;;14.57;54.89
38227;BME280;24026;49.446;8.576;2023-02-18T14:35:38;101074.88;;;14.56;54.75
38227;BME280;24026;49.446;8.576;2023-02-18T14:40:57;101072.78;;;14.58;54.66